sensor_id;sensor_type;location;lat;lon;timestamp;temperature;humidity
7234;DHT22;3658;47.992;10.158;2023-11-19T00:02:25;21.00;42.70
7234;DHT22;3658;47.992;10.158;2023-11-19T00:04:53;21.00;42.60
7234;DHT22;3658;47.992;10.158;2023-11-19T00:07:20;21.00;42.50
7234;DHT22;3658;47.992;10.158;2023-11-19T00:09:47;21.00;42.50
7234;DHT22;3658;47.992;10.158;2023-11-19T00:12:14;21.00;42.50
7234;DHT22;3658;47.992;10.158;2023-11-19T00:14:41;20.90;42.40
7234;DHT22;3658;47.992;10.158;2023-11-19T00:17:08;21.00;42.40
7234;DHT22;3658;47.992;10.158;2023-11-19T00:19:35;21.00;43.00
7234;DHT22;3658;47.992;10.158;2023-11-19T00:22:03;20.90;42.30
7234;DHT22;3658;47.992;10.158;2023-11-19T00:24:30;21.00;42.40
7234;DHT22;3658;47.992;10.158;2023-11-19T00:26:57;21.00;42.30
7234;DHT22;3658;47.992;10.158;2023-11-19T00:29:24;20.90;42.20
7234;DHT22;3658;47.992;10.158;2023-11-19T00:31:50;20.90;42.20
7234;DHT22;3658;47.992;10.158;2023-11-19T00:34:17;20.90;42.20
7234;DHT22;3658;47.992;10.158;2023-11-19T00:36:47;21.00;42.20
7234;DHT22;3658;47.992;10.158;2023-11-19T00:39:15;21.00;42.20
7234;DHT22;3658;47.992;10.158;2023-11-19T00:41:43;21.00;42.20
7234;DHT22;3658;47.992;10.158;2023-11-19T00:44:11;21.00;42.20
7234;DHT22;3658;47.992;10.158;2023-11-19T00:46:38;21.00;42.20
7234;DHT22;3658;47.992;10.158;2023-11-19T00:49:05;21.00;42.20
7234;DHT22;3658;47.992;10.158;2023-11-19T00:51:32;20.90;42.10
7234;DHT22;3658;47.992;10.158;2023-11-19T00:53:59;21.00;42.20
7234;DHT22;3658;47.992;10.158;2023-11-19T00:56:28;21.00;42.20
7234;DHT22;3658;47.992;10.158;2023-11-19T00:58:55;21.00;42.20
7234;DHT22;3658;47.992;10.158;2023-11-19T01:01:22;21.00;42.20
7234;DHT22;3658;47.992;10.158;2023-11-19T01:03:49;21.00;42.10
7234;DHT22;3658;47.992;10.158;2023-11-19T01:06:27;21.00;42.10
7234;DHT22;3658;47.992;10.158;2023-11-19T01:08:54;21.00;42.10
7234;DHT22;3658;47.992;10.158;2023-11-19T01:11:22;20.90;42.10
7234;DHT22;3658;47.992;10.158;2023-11-19T01:13:51;21.00;42.10
7234;DHT22;3658;47.992;10.158;2023-11-19T01:16:18;21.00;42.10
7234;DHT22;3658;47.992;10.158;2023-11-19T01:18:47;21.00;42.10
7234;DHT22;3658;47.992;10.158;2023-11-19T01:21:14;21.00;42.10
7234;DHT22;3658;47.992;10.158;2023-11-19T01:23:41;20.90;42.10
7234;DHT22;3658;47.992;10.158;2023-11-19T01:26:09;21.00;42.20
7234;DHT22;3658;47.992;10.158;2023-11-19T01:28:37;21.00;42.10
7234;DHT22;3658;47.992;10.158;2023-11-19T01:31:11;21.00;42.10
7234;DHT22;3658;47.992;10.158;2023-11-19T01:33:38;21.00;42.70
7234;DHT22;3658;47.992;10.158;2023-11-19T01:36:06;21.00;42.10
7234;DHT22;3658;47.992;10.158;2023-11-19T01:38:33;21.00;42.10
7234;DHT22;3658;47.992;10.158;2023-11-19T01:41:00;21.00;42.10
7234;DHT22;3658;47.992;10.158;2023-11-19T01:43:32;20.90;42.10
7234;DHT22;3658;47.992;10.158;2023-11-19T01:45:59;21.00;42.10
7234;DHT22;3658;47.992;10.158;2023-11-19T01:48:27;21.00;42.00
7234;DHT22;3658;47.992;10.158;2023-11-19T01:50:54;21.00;42.00
7234;DHT22;3658;47.992;10.158;2023-11-19T01:53:21;21.00;42.10
7234;DHT22;3658;47.992;10.158;2023-11-19T01:55:48;21.00;42.10
7234;DHT22;3658;47.992;10.158;2023-11-19T01:58:16;21.00;42.10
7234;DHT22;3658;47.992;10.158;2023-11-19T02:00:44;21.00;42.10
7234;DHT22;3658;47.992;10.158;2023-11-19T02:03:12;21.00;42.10
7234;DHT22;3658;47.992;10.158;2023-11-19T02:05:41;21.00;42.10
7234;DHT22;3658;47.992;10.158;2023-11-19T02:08:08;21.00;42.20
7234;DHT22;3658;47.992;10.158;2023-11-19T02:10:35;21.00;42.10
7234;DHT22;3658;47.992;10.158;2023-11-19T02:13:02;21.00;42.10
7234;DHT22;3658;47.992;10.158;2023-11-19T02:15:31;21.00;42.10
7234;DHT22;3658;47.992;10.158;2023-11-19T02:18:17;21.00;42.10
7234;DHT22;3658;47.992;10.158;2023-11-19T02:20:45;21.00;42.10
7234;DHT22;3658;47.992;10.158;2023-11-19T02:23:13;21.00;42.20
7234;DHT22;3658;47.992;10.158;2023-11-19T02:25:40;21.00;42.20
7234;DHT22;3658;47.992;10.158;2023-11-19T02:28:09;21.00;42.10
7234;DHT22;3658;47.992;10.158;2023-11-19T02:30:38;21.00;42.10
7234;DHT22;3658;47.992;10.158;2023-11-19T02:33:05;21.00;42.10
7234;DHT22;3658;47.992;10.158;2023-11-19T02:35:32;21.00;42.10
7234;DHT22;3658;47.992;10.158;2023-11-19T02:37:59;21.00;42.10
7234;DHT22;3658;47.992;10.158;2023-11-19T02:40:26;21.00;42.10
7234;DHT22;3658;47.992;10.158;2023-11-19T02:42:53;21.00;42.10
7234;DHT22;3658;47.992;10.158;2023-11-19T02:45:22;21.00;42.20
7234;DHT22;3658;47.992;10.158;2023-11-19T02:47:49;21.00;42.20
7234;DHT22;3658;47.992;10.158;2023-11-19T02:50:17;21.00;42.10
7234;DHT22;3658;47.992;10.158;2023-11-19T02:52:51;21.00;42.10
7234;DHT22;3658;47.992;10.158;2023-11-19T02:55:18;21.00;42.10
7234;DHT22;3658;47.992;10.158;2023-11-19T02:57:46;21.00;42.10
7234;DHT22;3658;47.992;10.158;2023-11-19T03:00:15;21.00;42.10
7234;DHT22;3658;47.992;10.158;2023-11-19T03:02:44;21.00;42.10
7234;DHT22;3658;47.992;10.158;2023-11-19T03:05:13;21.00;42.10
7234;DHT22;3658;47.992;10.158;2023-11-19T03:07:41;21.00;42.10
7234;DHT22;3658;47.992;10.158;2023-11-19T03:10:09;21.00;42.10
7234;DHT22;3658;47.992;10.158;2023-11-19T03:12:39;21.00;42.10
7234;DHT22;3658;47.992;10.158;2023-11-19T03:15:07;21.00;42.10
7234;DHT22;3658;47.992;10.158;2023-11-19T03:17:35;21.00;42.20
7234;DHT22;3658;47.992;10.158;2023-11-19T03:20:05;21.00;42.20
7234;DHT22;3658;47.992;10.158;2023-11-19T03:22:36;21.00;42.10
7234;DHT22;3658;47.992;10.158;2023-11-19T03:25:04;21.00;42.20
7234;DHT22;3658;47.992;10.158;2023-11-19T03:27:33;21.00;42.20
7234;DHT22;3658;47.992;10.158;2023-11-19T03:30:01;21.00;42.20
7234;DHT22;3658;47.992;10.158;2023-11-19T03:32:30;21.00;42.20
7234;DHT22;3658;47.992;10.158;2023-11-19T03:34:57;21.00;42.20
7234;DHT22;3658;47.992;10.158;2023-11-19T03:37:26;21.00;42.20
7234;DHT22;3658;47.992;10.158;2023-11-19T03:39:53;21.00;42.20
7234;DHT22;3658;47.992;10.158;2023-11-19T03:42:20;21.00;42.20
7234;DHT22;3658;47.992;10.158;2023-11-19T03:44:48;21.00;42.20
7234;DHT22;3658;47.992;10.158;2023-11-19T03:47:16;21.00;42.20
7234;DHT22;3658;47.992;10.158;2023-11-19T03:49:42;21.00;42.20
7234;DHT22;3658;47.992;10.158;2023-11-19T03:52:14;21.00;42.20
7234;DHT22;3658;47.992;10.158;2023-11-19T03:54:42;21.00;42.20
7234;DHT22;3658;47.992;10.158;2023-11-19T03:57:09;21.10;42.20
7234;DHT22;3658;47.992;10.158;2023-11-19T03:59:37;21.00;42.20
7234;DHT22;3658;47.992;10.158;2023-11-19T04:02:04;21.10;42.20
7234;DHT22;3658;47.992;10.158;2023-11-19T04:04:31;21.10;42.20
7234;DHT22;3658;47.992;10.158;2023-11-19T04:06:58;21.10;42.20
7234;DHT22;3658;47.992;10.158;2023-11-19T04:09:26;21.00;42.20
7234;DHT22;3658;47.992;10.158;2023-11-19T04:11:54;21.00;42.20
7234;DHT22;3658;47.992;10.158;2023-11-19T04:14:21;21.00;42.20
7234;DHT22;3658;47.992;10.158;2023-11-19T04:16:48;21.00;42.20
7234;DHT22;3658;47.992;10.158;2023-11-19T04:19:14;21.00;42.30
7234;DHT22;3658;47.992;10.158;2023-11-19T04:21:41;21.00;42.20
7234;DHT22;3658;47.992;10.158;2023-11-19T04:24:09;21.00;42.20
7234;DHT22;3658;47.992;10.158;2023-11-19T04:26:40;21.10;42.30
7234;DHT22;3658;47.992;10.158;2023-11-19T04:29:11;21.00;42.20
7234;DHT22;3658;47.992;10.158;2023-11-19T04:31:38;21.00;42.20
7234;DHT22;3658;47.992;10.158;2023-11-19T04:34:05;21.00;42.20
7234;DHT22;3658;47.992;10.158;2023-11-19T04:36:33;21.00;42.20
7234;DHT22;3658;47.992;10.158;2023-11-19T04:39:00;21.00;42.20
7234;DHT22;3658;47.992;10.158;2023-11-19T04:41:27;21.00;42.20
7234;DHT22;3658;47.992;10.158;2023-11-19T04:43:54;21.10;42.30
7234;DHT22;3658;47.992;10.158;2023-11-19T04:46:22;21.00;42.30
7234;DHT22;3658;47.992;10.158;2023-11-19T04:48:50;21.00;42.30
7234;DHT22;3658;47.992;10.158;2023-11-19T04:51:17;21.10;42.40
7234;DHT22;3658;47.992;10.158;2023-11-19T04:53:44;21.10;42.40
7234;DHT22;3658;47.992;10.158;2023-11-19T04:56:11;21.10;42.40
7234;DHT22;3658;47.992;10.158;2023-11-19T04:58:38;21.10;42.40
7234;DHT22;3658;47.992;10.158;2023-11-19T05:01:05;21.00;42.30
7234;DHT22;3658;47.992;10.158;2023-11-19T05:03:33;21.10;42.40
7234;DHT22;3658;47.992;10.158;2023-11-19T05:06:01;21.00;42.40
7234;DHT22;3658;47.992;10.158;2023-11-19T05:08:28;21.10;42.40
7234;DHT22;3658;47.992;10.158;2023-11-19T05:10:55;21.10;42.40
7234;DHT22;3658;47.992;10.158;2023-11-19T05:13:23;21.10;42.40
7234;DHT22;3658;47.992;10.158;2023-11-19T05:15:50;21.10;42.40
7234;DHT22;3658;47.992;10.158;2023-11-19T05:18:16;21.10;42.40
7234;DHT22;3658;47.992;10.158;2023-11-19T05:20:45;21.10;42.40
7234;DHT22;3658;47.992;10.158;2023-11-19T05:23:12;21.10;42.40
7234;DHT22;3658;47.992;10.158;2023-11-19T05:25:39;21.10;42.40
7234;DHT22;3658;47.992;10.158;2023-11-19T05:28:05;21.10;42.40
7234;DHT22;3658;47.992;10.158;2023-11-19T05:30:32;21.10;42.50
7234;DHT22;3658;47.992;10.158;2023-11-19T05:32:59;21.10;42.40
7234;DHT22;3658;47.992;10.158;2023-11-19T05:35:26;21.10;42.40
7234;DHT22;3658;47.992;10.158;2023-11-19T05:37:54;21.10;42.50
7234;DHT22;3658;47.992;10.158;2023-11-19T05:40:21;21.10;42.50
7234;DHT22;3658;47.992;10.158;2023-11-19T05:42:48;21.10;42.50
7234;DHT22;3658;47.992;10.158;2023-11-19T05:45:15;21.10;42.50
7234;DHT22;3658;47.992;10.158;2023-11-19T05:47:42;21.10;42.60
7234;DHT22;3658;47.992;10.158;2023-11-19T05:50:09;21.10;42.50
7234;DHT22;3658;47.992;10.158;2023-11-19T05:52:37;21.10;42.50
7234;DHT22;3658;47.992;10.158;2023-11-19T05:55:05;21.10;42.50
7234;DHT22;3658;47.992;10.158;2023-11-19T05:57:35;21.10;42.50
7234;DHT22;3658;47.992;10.158;2023-11-19T06:00:04;21.10;42.60
7234;DHT22;3658;47.992;10.158;2023-11-19T06:02:33;21.10;42.50
7234;DHT22;3658;47.992;10.158;2023-11-19T06:05:00;21.10;42.50
7234;DHT22;3658;47.992;10.158;2023-11-19T06:07:27;21.10;42.50
7234;DHT22;3658;47.992;10.158;2023-11-19T06:09:55;21.10;42.50
7234;DHT22;3658;47.992;10.158;2023-11-19T06:12:23;21.10;42.60
7234;DHT22;3658;47.992;10.158;2023-11-19T06:14:50;21.10;42.60
7234;DHT22;3658;47.992;10.158;2023-11-19T06:17:17;21.10;42.60
7234;DHT22;3658;47.992;10.158;2023-11-19T06:19:43;21.10;42.70
7234;DHT22;3658;47.992;10.158;2023-11-19T06:22:11;21.10;43.50
7234;DHT22;3658;47.992;10.158;2023-11-19T06:24:38;21.10;44.00
7234;DHT22;3658;47.992;10.158;2023-11-19T06:27:05;21.10;44.20
7234;DHT22;3658;47.992;10.158;2023-11-19T06:29:33;21.10;44.20
7234;DHT22;3658;47.992;10.158;2023-11-19T06:32:00;21.00;44.20
7234;DHT22;3658;47.992;10.158;2023-11-19T06:34:26;21.00;44.30
7234;DHT22;3658;47.992;10.158;2023-11-19T06:36:53;21.00;44.40
7234;DHT22;3658;47.992;10.158;2023-11-19T06:39:21;21.00;44.20
7234;DHT22;3658;47.992;10.158;2023-11-19T06:41:48;21.00;44.40
7234;DHT22;3658;47.992;10.158;2023-11-19T06:44:14;21.10;44.70
7234;DHT22;3658;47.992;10.158;2023-11-19T06:46:43;21.10;44.70
7234;DHT22;3658;47.992;10.158;2023-11-19T06:49:09;21.10;44.50
7234;DHT22;3658;47.992;10.158;2023-11-19T06:51:41;21.10;44.50
7234;DHT22;3658;47.992;10.158;2023-11-19T06:54:08;21.10;44.60
7234;DHT22;3658;47.992;10.158;2023-11-19T06:56:35;21.10;44.70
7234;DHT22;3658;47.992;10.158;2023-11-19T06:59:02;21.10;44.80
7234;DHT22;3658;47.992;10.158;2023-11-19T07:01:34;21.10;44.80
7234;DHT22;3658;47.992;10.158;2023-11-19T07:04:03;21.10;44.80
7234;DHT22;3658;47.992;10.158;2023-11-19T07:06:34;21.00;44.80
7234;DHT22;3658;47.992;10.158;2023-11-19T07:09:02;21.10;44.90
7234;DHT22;3658;47.992;10.158;2023-11-19T07:11:35;21.00;44.70
7234;DHT22;3658;47.992;10.158;2023-11-19T07:14:04;21.00;44.80
7234;DHT22;3658;47.992;10.158;2023-11-19T07:16:32;21.10;44.90
7234;DHT22;3658;47.992;10.158;2023-11-19T07:18:59;21.10;44.90
7234;DHT22;3658;47.992;10.158;2023-11-19T07:21:28;21.10;45.00
7234;DHT22;3658;47.992;10.158;2023-11-19T07:23:55;21.10;44.90
7234;DHT22;3658;47.992;10.158;2023-11-19T07:26:22;21.10;45.00
7234;DHT22;3658;47.992;10.158;2023-11-19T07:28:49;21.10;45.00
7234;DHT22;3658;47.992;10.158;2023-11-19T07:31:17;21.00;44.80
7234;DHT22;3658;47.992;10.158;2023-11-19T07:33:45;21.10;45.00
7234;DHT22;3658;47.992;10.158;2023-11-19T07:36:11;21.10;45.00
7234;DHT22;3658;47.992;10.158;2023-11-19T07:38:39;21.10;45.00
7234;DHT22;3658;47.992;10.158;2023-11-19T07:41:06;21.10;45.00
7234;DHT22;3658;47.992;10.158;2023-11-19T07:43:35;21.10;45.10
7234;DHT22;3658;47.992;10.158;2023-11-19T07:46:02;21.10;45.10
7234;DHT22;3658;47.992;10.158;2023-11-19T07:48:30;21.00;45.00
7234;DHT22;3658;47.992;10.158;2023-11-19T07:50:57;21.00;45.00
7234;DHT22;3658;47.992;10.158;2023-11-19T07:53:24;21.00;45.00
7234;DHT22;3658;47.992;10.158;2023-11-19T07:55:52;21.10;45.20
7234;DHT22;3658;47.992;10.158;2023-11-19T07:58:19;21.10;45.10
7234;DHT22;3658;47.992;10.158;2023-11-19T08:00:46;21.10;45.10
7234;DHT22;3658;47.992;10.158;2023-11-19T08:03:13;21.10;45.80
7234;DHT22;3658;47.992;10.158;2023-11-19T08:05:40;21.10;45.10
7234;DHT22;3658;47.992;10.158;2023-11-19T08:08:07;21.10;45.00
7234;DHT22;3658;47.992;10.158;2023-11-19T08:10:34;21.10;45.10
7234;DHT22;3658;47.992;10.158;2023-11-19T08:13:02;20.90;45.30
7234;DHT22;3658;47.992;10.158;2023-11-19T08:15:28;20.80;45.80
7234;DHT22;3658;47.992;10.158;2023-11-19T08:17:55;20.60;46.10
7234;DHT22;3658;47.992;10.158;2023-11-19T08:20:22;20.50;46.40
7234;DHT22;3658;47.992;10.158;2023-11-19T08:22:50;20.50;46.60
7234;DHT22;3658;47.992;10.158;2023-11-19T08:25:16;20.50;46.70
7234;DHT22;3658;47.992;10.158;2023-11-19T08:27:43;20.50;46.70
7234;DHT22;3658;47.992;10.158;2023-11-19T08:30:12;20.50;46.80
7234;DHT22;3658;47.992;10.158;2023-11-19T08:32:39;20.50;47.00
7234;DHT22;3658;47.992;10.158;2023-11-19T08:35:07;20.50;47.10
7234;DHT22;3658;47.992;10.158;2023-11-19T08:37:34;20.40;47.10
7234;DHT22;3658;47.992;10.158;2023-11-19T08:40:02;20.40;47.10
7234;DHT22;3658;47.992;10.158;2023-11-19T08:42:30;20.50;47.40
7234;DHT22;3658;47.992;10.158;2023-11-19T08:44:58;20.60;47.50
7234;DHT22;3658;47.992;10.158;2023-11-19T08:47:26;20.80;47.50
7234;DHT22;3658;47.992;10.158;2023-11-19T08:49:53;20.90;47.30
7234;DHT22;3658;47.992;10.158;2023-11-19T08:52:20;21.00;47.30
7234;DHT22;3658;47.992;10.158;2023-11-19T08:54:47;21.00;47.20
7234;DHT22;3658;47.992;10.158;2023-11-19T08:57:14;21.10;47.30
7234;DHT22;3658;47.992;10.158;2023-11-19T08:59:41;21.10;47.20
7234;DHT22;3658;47.992;10.158;2023-11-19T09:02:09;21.10;46.80
7234;DHT22;3658;47.992;10.158;2023-11-19T09:04:37;21.20;46.80
7234;DHT22;3658;47.992;10.158;2023-11-19T09:07:04;21.20;46.60
7234;DHT22;3658;47.992;10.158;2023-11-19T09:09:31;21.20;46.60
7234;DHT22;3658;47.992;10.158;2023-11-19T09:12:01;21.20;46.60
7234;DHT22;3658;47.992;10.158;2023-11-19T09:14:28;21.20;46.50
7234;DHT22;3658;47.992;10.158;2023-11-19T09:16:56;21.20;46.40
7234;DHT22;3658;47.992;10.158;2023-11-19T09:19:23;21.20;46.40
7234;DHT22;3658;47.992;10.158;2023-11-19T09:21:51;21.20;46.50
7234;DHT22;3658;47.992;10.158;2023-11-19T09:24:18;21.30;46.90
7234;DHT22;3658;47.992;10.158;2023-11-19T09:26:45;21.30;47.10
7234;DHT22;3658;47.992;10.158;2023-11-19T09:29:13;21.20;46.40
7234;DHT22;3658;47.992;10.158;2023-11-19T09:31:42;21.30;46.40
7234;DHT22;3658;47.992;10.158;2023-11-19T09:34:10;21.20;46.30
7234;DHT22;3658;47.992;10.158;2023-11-19T09:36:36;21.30;46.30
7234;DHT22;3658;47.992;10.158;2023-11-19T09:39:05;21.30;46.30
7234;DHT22;3658;47.992;10.158;2023-11-19T09:41:33;21.30;46.30
7234;DHT22;3658;47.992;10.158;2023-11-19T09:44:00;21.20;46.40
7234;DHT22;3658;47.992;10.158;2023-11-19T09:46:28;21.20;46.70
7234;DHT22;3658;47.992;10.158;2023-11-19T09:48:58;21.30;47.00
7234;DHT22;3658;47.992;10.158;2023-11-19T09:51:25;21.30;46.80
7234;DHT22;3658;47.992;10.158;2023-11-19T09:53:52;21.30;46.70
7234;DHT22;3658;47.992;10.158;2023-11-19T09:56:22;21.30;46.60
7234;DHT22;3658;47.992;10.158;2023-11-19T09:58:49;21.30;46.60
7234;DHT22;3658;47.992;10.158;2023-11-19T10:01:16;21.30;46.70
7234;DHT22;3658;47.992;10.158;2023-11-19T10:03:44;21.30;46.60
7234;DHT22;3658;47.992;10.158;2023-11-19T10:06:14;21.30;47.50
7234;DHT22;3658;47.992;10.158;2023-11-19T10:08:43;21.40;46.90
7234;DHT22;3658;47.992;10.158;2023-11-19T10:11:10;21.40;46.60
7234;DHT22;3658;47.992;10.158;2023-11-19T10:13:39;21.30;46.50
7234;DHT22;3658;47.992;10.158;2023-11-19T10:16:08;21.30;46.30
7234;DHT22;3658;47.992;10.158;2023-11-19T10:18:37;21.40;46.20
7234;DHT22;3658;47.992;10.158;2023-11-19T10:21:05;21.40;46.50
7234;DHT22;3658;47.992;10.158;2023-11-19T10:23:48;21.40;46.50
7234;DHT22;3658;47.992;10.158;2023-11-19T10:26:15;21.40;46.50
7234;DHT22;3658;47.992;10.158;2023-11-19T10:28:43;21.40;46.60
7234;DHT22;3658;47.992;10.158;2023-11-19T10:31:12;21.40;46.50
7234;DHT22;3658;47.992;10.158;2023-11-19T10:33:39;21.40;46.60
7234;DHT22;3658;47.992;10.158;2023-11-19T10:36:07;21.40;46.50
7234;DHT22;3658;47.992;10.158;2023-11-19T10:38:34;21.40;46.50
7234;DHT22;3658;47.992;10.158;2023-11-19T10:41:01;21.40;46.10
7234;DHT22;3658;47.992;10.158;2023-11-19T10:43:28;21.30;46.00
7234;DHT22;3658;47.992;10.158;2023-11-19T10:46:09;21.30;46.00
7234;DHT22;3658;47.992;10.158;2023-11-19T10:48:37;21.30;46.10
7234;DHT22;3658;47.992;10.158;2023-11-19T10:51:07;21.30;46.40
7234;DHT22;3658;47.992;10.158;2023-11-19T10:53:36;21.30;46.40
7234;DHT22;3658;47.992;10.158;2023-11-19T10:56:06;21.30;46.60
7234;DHT22;3658;47.992;10.158;2023-11-19T10:58:36;21.30;46.90
7234;DHT22;3658;47.992;10.158;2023-11-19T11:01:09;21.30;46.50
7234;DHT22;3658;47.992;10.158;2023-11-19T11:03:40;21.30;47.00
7234;DHT22;3658;47.992;10.158;2023-11-19T11:06:07;21.30;46.50
7234;DHT22;3658;47.992;10.158;2023-11-19T11:08:36;21.30;46.50
7234;DHT22;3658;47.992;10.158;2023-11-19T11:11:05;21.30;46.40
7234;DHT22;3658;47.992;10.158;2023-11-19T11:13:32;21.30;46.40
7234;DHT22;3658;47.992;10.158;2023-11-19T11:16:00;21.30;46.80
7234;DHT22;3658;47.992;10.158;2023-11-19T11:18:28;21.20;46.40
7234;DHT22;3658;47.992;10.158;2023-11-19T11:21:00;21.10;46.40
7234;DHT22;3658;47.992;10.158;2023-11-19T11:23:52;21.00;46.40
7234;DHT22;3658;47.992;10.158;2023-11-19T11:26:53;21.00;46.50
7234;DHT22;3658;47.992;10.158;2023-11-19T11:29:27;20.90;46.40
7234;DHT22;3658;47.992;10.158;2023-11-19T11:32:04;20.90;46.40
7234;DHT22;3658;47.992;10.158;2023-11-19T11:37:32;20.90;46.50
7234;DHT22;3658;47.992;10.158;2023-11-19T11:40:01;20.90;46.50
7234;DHT22;3658;47.992;10.158;2023-11-19T11:42:36;20.80;46.60
7234;DHT22;3658;47.992;10.158;2023-11-19T11:45:04;20.80;46.50
7234;DHT22;3658;47.992;10.158;2023-11-19T11:48:05;20.80;46.50
7234;DHT22;3658;47.992;10.158;2023-11-19T11:50:49;20.80;46.40
7234;DHT22;3658;47.992;10.158;2023-11-19T11:53:17;20.80;46.40
7234;DHT22;3658;47.992;10.158;2023-11-19T11:55:59;20.80;46.40
7234;DHT22;3658;47.992;10.158;2023-11-19T11:58:37;20.80;46.40
7234;DHT22;3658;47.992;10.158;2023-11-19T12:01:05;20.80;47.10
7234;DHT22;3658;47.992;10.158;2023-11-19T12:03:32;20.90;47.00
7234;DHT22;3658;47.992;10.158;2023-11-19T12:06:01;21.10;47.20
7234;DHT22;3658;47.992;10.158;2023-11-19T12:08:29;21.10;47.00
7234;DHT22;3658;47.992;10.158;2023-11-19T12:10:58;21.10;46.80
7234;DHT22;3658;47.992;10.158;2023-11-19T12:13:42;21.20;46.80
7234;DHT22;3658;47.992;10.158;2023-11-19T12:16:10;21.20;46.80
7234;DHT22;3658;47.992;10.158;2023-11-19T12:18:39;21.30;46.80
7234;DHT22;3658;47.992;10.158;2023-11-19T12:21:07;21.30;46.60
7234;DHT22;3658;47.992;10.158;2023-11-19T12:23:46;21.40;46.60
7234;DHT22;3658;47.992;10.158;2023-11-19T12:26:34;21.30;46.50
7234;DHT22;3658;47.992;10.158;2023-11-19T12:29:01;21.40;46.60
7234;DHT22;3658;47.992;10.158;2023-11-19T12:31:32;21.40;46.70
7234;DHT22;3658;47.992;10.158;2023-11-19T12:34:05;21.40;46.60
7234;DHT22;3658;47.992;10.158;2023-11-19T12:36:34;21.40;46.50
7234;DHT22;3658;47.992;10.158;2023-11-19T12:39:01;21.40;46.60
7234;DHT22;3658;47.992;10.158;2023-11-19T12:41:28;21.40;46.60
7234;DHT22;3658;47.992;10.158;2023-11-19T12:44:09;21.40;46.50
7234;DHT22;3658;47.992;10.158;2023-11-19T12:46:36;21.40;46.50
7234;DHT22;3658;47.992;10.158;2023-11-19T12:49:03;21.50;46.60
7234;DHT22;3658;47.992;10.158;2023-11-19T12:51:32;21.50;46.50
7234;DHT22;3658;47.992;10.158;2023-11-19T12:53:59;21.50;46.40
7234;DHT22;3658;47.992;10.158;2023-11-19T12:56:26;21.50;46.50
7234;DHT22;3658;47.992;10.158;2023-11-19T12:58:53;21.50;46.40
7234;DHT22;3658;47.992;10.158;2023-11-19T13:01:20;21.50;46.40
7234;DHT22;3658;47.992;10.158;2023-11-19T13:03:48;21.50;46.60
7234;DHT22;3658;47.992;10.158;2023-11-19T13:06:16;21.50;46.60
7234;DHT22;3658;47.992;10.158;2023-11-19T13:08:49;21.50;46.50
7234;DHT22;3658;47.992;10.158;2023-11-19T13:11:30;21.50;46.50
7234;DHT22;3658;47.992;10.158;2023-11-19T13:13:57;21.50;46.60
7234;DHT22;3658;47.992;10.158;2023-11-19T13:16:24;21.50;46.70
7234;DHT22;3658;47.992;10.158;2023-11-19T13:18:52;21.50;46.60
7234;DHT22;3658;47.992;10.158;2023-11-19T13:21:19;21.50;46.80
7234;DHT22;3658;47.992;10.158;2023-11-19T13:23:45;21.50;46.70
7234;DHT22;3658;47.992;10.158;2023-11-19T13:26:14;21.40;46.70
7234;DHT22;3658;47.992;10.158;2023-11-19T13:28:41;21.40;46.70
7234;DHT22;3658;47.992;10.158;2023-11-19T13:31:07;21.40;46.80
7234;DHT22;3658;47.992;10.158;2023-11-19T13:33:36;21.40;46.60
7234;DHT22;3658;47.992;10.158;2023-11-19T13:36:03;21.40;47.10
7234;DHT22;3658;47.992;10.158;2023-11-19T13:38:33;21.30;46.80
7234;DHT22;3658;47.992;10.158;2023-11-19T13:41:00;21.30;46.60
7234;DHT22;3658;47.992;10.158;2023-11-19T13:43:28;21.30;46.70
7234;DHT22;3658;47.992;10.158;2023-11-19T13:45:55;21.20;46.80
7234;DHT22;3658;47.992;10.158;2023-11-19T13:48:23;21.20;46.80
7234;DHT22;3658;47.992;10.158;2023-11-19T13:50:50;21.10;46.80
7234;DHT22;3658;47.992;10.158;2023-11-19T13:53:16;21.10;46.90
7234;DHT22;3658;47.992;10.158;2023-11-19T13:55:43;20.90;47.40
7234;DHT22;3658;47.992;10.158;2023-11-19T13:58:10;21.00;48.50
7234;DHT22;3658;47.992;10.158;2023-11-19T14:00:38;21.20;48.40
7234;DHT22;3658;47.992;10.158;2023-11-19T14:03:07;21.30;47.70
7234;DHT22;3658;47.992;10.158;2023-11-19T14:05:35;21.30;47.80
7234;DHT22;3658;47.992;10.158;2023-11-19T14:08:01;21.40;47.90
7234;DHT22;3658;47.992;10.158;2023-11-19T14:10:29;21.30;47.70
7234;DHT22;3658;47.992;10.158;2023-11-19T14:12:55;21.20;47.90
7234;DHT22;3658;47.992;10.158;2023-11-19T14:15:24;21.10;47.80
7234;DHT22;3658;47.992;10.158;2023-11-19T14:17:52;21.10;47.60
7234;DHT22;3658;47.992;10.158;2023-11-19T14:20:19;21.10;47.70
7234;DHT22;3658;47.992;10.158;2023-11-19T14:22:46;21.10;47.80
7234;DHT22;3658;47.992;10.158;2023-11-19T14:25:14;21.00;47.60
7234;DHT22;3658;47.992;10.158;2023-11-19T14:27:42;21.10;47.50
7234;DHT22;3658;47.992;10.158;2023-11-19T14:30:11;21.10;47.50
7234;DHT22;3658;47.992;10.158;2023-11-19T14:32:40;21.10;47.40
7234;DHT22;3658;47.992;10.158;2023-11-19T14:35:09;21.00;47.40
7234;DHT22;3658;47.992;10.158;2023-11-19T14:37:36;21.00;47.40
7234;DHT22;3658;47.992;10.158;2023-11-19T14:40:03;21.00;47.30
7234;DHT22;3658;47.992;10.158;2023-11-19T14:42:31;21.00;47.30
7234;DHT22;3658;47.992;10.158;2023-11-19T14:44:58;21.00;47.30
7234;DHT22;3658;47.992;10.158;2023-11-19T14:47:25;21.00;47.50
7234;DHT22;3658;47.992;10.158;2023-11-19T14:49:51;21.00;48.00
7234;DHT22;3658;47.992;10.158;2023-11-19T14:52:20;21.00;48.70
7234;DHT22;3658;47.992;10.158;2023-11-19T14:54:49;21.10;48.70
7234;DHT22;3658;47.992;10.158;2023-11-19T14:57:16;21.10;48.70
7234;DHT22;3658;47.992;10.158;2023-11-19T14:59:43;21.10;48.80
7234;DHT22;3658;47.992;10.158;2023-11-19T15:02:11;21.20;49.10
7234;DHT22;3658;47.992;10.158;2023-11-19T15:04:38;21.20;49.20
7234;DHT22;3658;47.992;10.158;2023-11-19T15:07:07;21.20;49.10
7234;DHT22;3658;47.992;10.158;2023-11-19T15:09:35;21.20;48.90
7234;DHT22;3658;47.992;10.158;2023-11-19T15:12:02;21.20;48.60
7234;DHT22;3658;47.992;10.158;2023-11-19T15:14:28;21.20;48.90
7234;DHT22;3658;47.992;10.158;2023-11-19T15:16:56;21.20;49.00
7234;DHT22;3658;47.992;10.158;2023-11-19T15:19:23;21.20;48.90
7234;DHT22;3658;47.992;10.158;2023-11-19T15:21:50;21.20;48.80
7234;DHT22;3658;47.992;10.158;2023-11-19T15:24:17;21.20;48.70
7234;DHT22;3658;47.992;10.158;2023-11-19T15:26:45;21.20;48.80
7234;DHT22;3658;47.992;10.158;2023-11-19T15:29:11;21.30;48.80
7234;DHT22;3658;47.992;10.158;2023-11-19T15:31:38;21.30;48.80
7234;DHT22;3658;47.992;10.158;2023-11-19T15:34:06;21.30;48.80
7234;DHT22;3658;47.992;10.158;2023-11-19T15:36:33;21.30;48.70
7234;DHT22;3658;47.992;10.158;2023-11-19T15:39:01;21.30;48.60
7234;DHT22;3658;47.992;10.158;2023-11-19T15:41:28;21.30;48.60
7234;DHT22;3658;47.992;10.158;2023-11-19T15:43:57;21.30;48.60
7234;DHT22;3658;47.992;10.158;2023-11-19T15:46:24;21.30;48.60
7234;DHT22;3658;47.992;10.158;2023-11-19T15:48:50;21.30;48.60
7234;DHT22;3658;47.992;10.158;2023-11-19T15:51:17;21.30;48.70
7234;DHT22;3658;47.992;10.158;2023-11-19T15:53:44;21.30;48.30
7234;DHT22;3658;47.992;10.158;2023-11-19T15:56:11;21.30;49.00